createdAt,value
2023-02-05T00:01:05.545Z,10.60
2023-02-05T00:03:32.043Z,10.60
2023-02-05T00:05:58.583Z,10.60
2023-02-05T00:08:25.049Z,10.60
2023-02-05T00:10:51.558Z,10.60
2023-02-05T00:13:18.030Z,10.50
2023-02-05T00:15:44.615Z,10.50
2023-02-05T00:18:11.070Z,10.60
2023-02-05T00:20:37.563Z,10.60
2023-02-05T00:23:04.036Z,10.60
2023-02-05T00:25:30.596Z,10.60
2023-02-05T00:27:57.101Z,10.60
2023-02-05T00:30:23.614Z,10.60
2023-02-05T00:32:50.093Z,10.60
2023-02-05T00:35:16.584Z,10.60
2023-02-05T00:37:43.053Z,10.60
2023-02-05T00:40:09.544Z,10.50
2023-02-05T00:42:36.012Z,10.60
2023-02-05T00:45:02.470Z,10.60
2023-02-05T00:47:28.940Z,10.60
2023-02-05T00:49:55.409Z,10.60
2023-02-05T00:52:21.896Z,10.60
2023-02-05T00:54:48.376Z,10.60
2023-02-05T00:57:14.847Z,10.50
2023-02-05T00:59:41.313Z,10.50
2023-02-05T01:02:07.784Z,10.50
2023-02-05T01:04:34.250Z,10.60
2023-02-05T01:07:00.743Z,10.50
2023-02-05T01:09:27.218Z,10.50
2023-02-05T01:11:53.708Z,10.50
2023-02-05T01:14:20.195Z,10.50
2023-02-05T01:16:46.835Z,10.50
2023-02-05T01:19:13.378Z,10.50
2023-02-05T01:21:39.853Z,10.50
2023-02-05T01:24:06.323Z,10.50
2023-02-05T01:26:32.788Z,10.50
2023-02-05T01:28:59.264Z,10.50
2023-02-05T01:31:25.908Z,10.50
2023-02-05T01:33:52.431Z,10.50
2023-02-05T01:36:18.920Z,10.50
2023-02-05T01:38:45.361Z,10.50
2023-02-05T01:41:11.843Z,10.50
2023-02-05T01:43:38.302Z,10.40
2023-02-05T01:46:04.852Z,10.50
2023-02-05T01:48:31.363Z,10.50
2023-02-05T01:50:57.854Z,10.50
2023-02-05T01:53:24.319Z,10.50
2023-02-05T01:55:50.827Z,10.50
2023-02-05T01:58:17.296Z,10.50
2023-02-05T02:00:43.805Z,10.50
2023-02-05T02:03:10.298Z,10.50
2023-02-05T02:05:36.795Z,10.50
2023-02-05T02:08:03.278Z,10.50
2023-02-05T02:10:29.748Z,10.50
2023-02-05T02:12:56.214Z,10.50
2023-02-05T02:15:22.684Z,10.50
2023-02-05T02:17:49.169Z,10.40
2023-02-05T02:20:15.644Z,10.40
2023-02-05T02:22:42.122Z,10.40
2023-02-05T02:25:08.644Z,10.40
2023-02-05T02:27:35.126Z,10.40
2023-02-05T02:30:01.628Z,10.40
2023-02-05T02:32:28.094Z,10.50
2023-02-05T02:34:54.566Z,10.40
2023-02-05T02:37:21.042Z,10.40
2023-02-05T02:39:47.525Z,10.40
2023-02-05T02:42:14.015Z,10.40
2023-02-05T02:44:40.517Z,10.40
2023-02-05T02:47:07.008Z,10.40
2023-02-05T02:49:33.468Z,10.40
2023-02-05T02:51:59.948Z,10.40
2023-02-05T02:54:26.420Z,10.40
2023-02-05T02:56:52.893Z,10.40
2023-02-05T02:59:19.379Z,10.50
2023-02-05T03:01:53.402Z,10.40
2023-02-05T03:04:20.450Z,10.40
2023-02-05T03:06:46.956Z,10.40
2023-02-05T03:09:13.417Z,10.40
2023-02-05T03:11:39.881Z,10.50
2023-02-05T03:14:06.368Z,10.50
2023-02-05T03:16:32.903Z,10.50
2023-02-05T03:18:59.392Z,10.50
2023-02-05T03:21:25.869Z,10.50
2023-02-05T03:23:52.388Z,10.50
2023-02-05T03:26:18.850Z,10.50
2023-02-05T03:28:45.338Z,10.50
2023-02-05T03:31:11.859Z,10.40
2023-02-05T03:33:38.370Z,10.40
2023-02-05T03:36:04.843Z,10.50
2023-02-05T03:38:31.369Z,10.50
2023-02-05T03:40:57.867Z,10.40
2023-02-05T03:43:24.376Z,10.50
2023-02-05T03:45:50.869Z,10.50
2023-02-05T03:48:17.347Z,10.50
2023-02-05T03:50:43.822Z,10.40
2023-02-05T03:53:10.298Z,10.50
2023-02-05T03:55:36.783Z,10.40
2023-02-05T03:58:03.260Z,10.40
2023-02-05T04:00:29.743Z,10.40
2023-02-05T04:02:56.252Z,10.40
2023-02-05T04:05:22.749Z,10.40
2023-02-05T04:07:49.214Z,10.40
2023-02-05T04:10:15.687Z,10.40
2023-02-05T04:12:42.143Z,10.40
2023-02-05T04:15:08.618Z,10.40
2023-02-05T04:17:35.081Z,10.40
2023-02-05T04:20:01.562Z,10.40
2023-02-05T04:22:28.033Z,10.40
2023-02-05T04:24:54.545Z,10.40
2023-02-05T04:27:21.002Z,10.40
2023-02-05T04:29:47.498Z,10.40
2023-02-05T04:32:13.987Z,10.40
2023-02-05T04:34:40.482Z,10.40
2023-02-05T04:37:06.971Z,10.40
2023-02-05T04:39:33.486Z,10.40
2023-02-05T04:41:59.975Z,10.40
2023-02-05T04:44:26.477Z,10.40
2023-02-05T04:46:52.972Z,10.40
2023-02-05T04:49:19.471Z,10.40
2023-02-05T04:51:46.006Z,10.40
2023-02-05T04:54:12.512Z,10.40
2023-02-05T04:56:38.990Z,10.40
2023-02-05T04:59:05.479Z,10.40
2023-02-05T05:01:32.051Z,10.40
2023-02-05T05:03:58.615Z,10.40
2023-02-05T05:06:25.104Z,10.40
2023-02-05T05:08:51.611Z,10.40
2023-02-05T05:11:18.101Z,10.40
2023-02-05T05:13:44.613Z,10.40
2023-02-05T05:16:11.145Z,10.40
2023-02-05T05:18:37.649Z,10.40
2023-02-05T05:21:04.131Z,10.40
2023-02-05T05:23:30.609Z,10.30
2023-02-05T05:25:57.088Z,10.40
2023-02-05T05:28:23.545Z,10.40
2023-02-05T05:30:50.083Z,10.40
2023-02-05T05:33:16.591Z,10.40
2023-02-05T05:35:43.070Z,10.40
2023-02-05T05:38:09.545Z,10.40
2023-02-05T05:40:36.017Z,10.40
2023-02-05T05:43:02.500Z,10.40
2023-02-05T05:45:28.989Z,10.30
2023-02-05T05:47:55.462Z,10.40
2023-02-05T05:50:21.959Z,10.40
2023-02-05T05:52:48.445Z,10.40
2023-02-05T05:55:14.910Z,10.50
2023-02-05T05:57:41.372Z,10.40
2023-02-05T06:00:07.850Z,10.40
2023-02-05T06:02:34.322Z,10.40
2023-02-05T06:05:00.814Z,10.40
2023-02-05T06:07:27.296Z,10.30
2023-02-05T06:09:53.797Z,10.40
2023-02-05T06:12:20.290Z,10.40
2023-02-05T06:14:46.767Z,10.40
2023-02-05T06:17:13.261Z,10.40
2023-02-05T06:19:39.732Z,10.40
2023-02-05T06:22:06.205Z,10.40
2023-02-05T06:24:32.680Z,10.40
2023-02-05T06:26:59.157Z,10.40
2023-02-05T06:29:25.635Z,10.40
2023-02-05T06:31:52.240Z,10.30
2023-02-05T06:34:18.755Z,10.40
2023-02-05T06:36:45.237Z,10.40
2023-02-05T06:39:11.726Z,10.40
2023-02-05T06:41:38.211Z,10.40
2023-02-05T06:44:04.672Z,10.40
2023-02-05T06:46:31.164Z,10.40
2023-02-05T06:48:57.716Z,10.40
2023-02-05T06:51:24.195Z,10.40
2023-02-05T06:53:50.659Z,10.40
2023-02-05T06:56:17.146Z,10.40
2023-02-05T06:58:43.603Z,10.40
2023-02-05T07:01:10.079Z,10.40
2023-02-05T07:03:36.564Z,10.40
2023-02-05T07:06:03.071Z,10.40
2023-02-05T07:08:29.534Z,10.40
2023-02-05T07:10:56.048Z,10.40
2023-02-05T07:13:22.522Z,10.40
2023-02-05T07:15:49.034Z,10.40
2023-02-05T07:18:15.501Z,10.40
2023-02-05T07:20:42.020Z,10.40
2023-02-05T07:23:08.509Z,10.40
2023-02-05T07:25:35.291Z,10.40
2023-02-05T07:28:08.043Z,10.40
2023-02-05T07:30:34.585Z,10.40
2023-02-05T07:33:01.062Z,10.50
2023-02-05T07:35:27.554Z,10.40
2023-02-05T07:37:54.017Z,10.40
2023-02-05T07:40:20.489Z,10.40
2023-02-05T07:42:46.969Z,10.40
2023-02-05T07:45:13.421Z,10.30
2023-02-05T07:47:39.890Z,10.30
2023-02-05T07:50:06.364Z,10.40
2023-02-05T07:52:32.833Z,10.40
2023-02-05T07:54:59.314Z,10.40
2023-02-05T07:57:25.812Z,10.40
2023-02-05T07:59:52.277Z,10.40
2023-02-05T08:02:18.757Z,10.40
2023-02-05T08:04:48.325Z,10.50
2023-02-05T08:07:14.800Z,10.30
2023-02-05T08:09:41.265Z,10.40
2023-02-05T08:12:07.768Z,10.40
2023-02-05T08:14:34.255Z,10.40
2023-02-05T08:17:00.728Z,10.30
2023-02-05T08:19:27.186Z,10.30
2023-02-05T08:21:53.663Z,10.30
2023-02-05T08:24:20.149Z,10.30
2023-02-05T08:26:46.644Z,10.30
2023-02-05T08:29:13.115Z,10.30
2023-02-05T08:31:39.630Z,10.30
2023-02-05T08:34:06.234Z,10.30
2023-02-05T08:36:32.720Z,10.30
2023-02-05T08:38:59.206Z,10.30
2023-02-05T08:41:25.701Z,10.30
2023-02-05T08:43:52.182Z,10.30
2023-02-05T08:46:18.777Z,10.30
2023-02-05T08:48:45.244Z,10.30
2023-02-05T08:51:11.716Z,10.30
2023-02-05T08:53:38.192Z,10.30
2023-02-05T08:56:04.656Z,10.30
2023-02-05T08:58:31.130Z,10.30
2023-02-05T09:00:57.607Z,10.30
2023-02-05T09:03:24.116Z,10.30
2023-02-05T09:05:50.595Z,10.40
2023-02-05T09:08:17.086Z,10.40
2023-02-05T09:10:43.545Z,10.30
2023-02-05T09:13:10.023Z,10.30
2023-02-05T09:15:36.754Z,10.30
2023-02-05T09:18:03.390Z,10.30
2023-02-05T09:20:29.888Z,10.30
2023-02-05T09:22:56.370Z,10.40
2023-02-05T09:25:22.866Z,10.30
2023-02-05T09:27:49.393Z,10.30
2023-02-05T09:30:15.909Z,10.40
2023-02-05T09:32:42.393Z,10.30
2023-02-05T09:35:08.855Z,10.40
2023-02-05T09:37:35.340Z,10.30
2023-02-05T09:40:20.079Z,10.30
2023-02-05T09:42:47.625Z,10.30
2023-02-05T09:45:14.131Z,10.30
2023-02-05T09:47:40.639Z,10.30
2023-02-05T09:50:07.117Z,10.30
2023-02-05T09:52:33.617Z,10.30
2023-02-05T09:55:00.104Z,10.40
2023-02-05T09:57:26.587Z,10.30
2023-02-05T09:59:53.082Z,10.30
2023-02-05T10:02:19.580Z,10.30
2023-02-05T10:04:46.060Z,10.30
2023-02-05T10:07:12.563Z,10.40
2023-02-05T10:09:39.034Z,10.40
2023-02-05T10:12:05.507Z,10.40
2023-02-05T10:14:31.980Z,10.40
2023-02-05T10:16:58.468Z,10.40
2023-02-05T10:19:24.946Z,10.40
2023-02-05T10:21:51.408Z,10.30
2023-02-05T10:24:17.881Z,10.30
2023-02-05T10:26:44.365Z,10.30
2023-02-05T10:29:10.839Z,10.30
2023-02-05T10:31:37.395Z,10.40
2023-02-05T10:34:03.977Z,10.30
2023-02-05T10:36:30.464Z,10.30
2023-02-05T10:38:56.966Z,10.40
2023-02-05T10:41:23.428Z,10.30
2023-02-05T10:43:49.931Z,10.30
2023-02-05T10:46:16.487Z,10.40
2023-02-05T10:48:43.049Z,10.40
2023-02-05T10:51:09.562Z,10.30
2023-02-05T10:53:36.070Z,10.30
2023-02-05T10:56:02.580Z,10.20
2023-02-05T10:58:29.061Z,10.20
2023-02-05T11:00:55.529Z,10.30
2023-02-05T11:03:22.021Z,10.20
2023-02-05T11:05:48.489Z,10.20
2023-02-05T11:08:14.979Z,10.20
2023-02-05T11:10:41.464Z,10.20
2023-02-05T11:13:07.942Z,10.20
2023-02-05T11:15:34.402Z,10.20
2023-02-05T11:18:00.860Z,10.20
2023-02-05T11:20:27.347Z,10.20
2023-02-05T11:22:53.824Z,10.20
2023-02-05T11:25:20.313Z,10.30
2023-02-05T11:27:46.858Z,10.40
2023-02-05T11:30:13.372Z,10.40
2023-02-05T11:32:39.833Z,10.30
2023-02-05T11:35:06.328Z,10.40
2023-02-05T11:37:32.806Z,10.30
2023-02-05T11:39:59.307Z,10.30
2023-02-05T11:42:25.805Z,10.40
2023-02-05T11:44:52.303Z,10.30
2023-02-05T11:47:18.755Z,10.30
2023-02-05T11:49:45.270Z,10.40
2023-02-05T11:52:11.743Z,10.40
2023-02-05T11:54:38.234Z,10.40
2023-02-05T11:57:04.726Z,10.30
2023-02-05T11:59:31.241Z,10.40
2023-02-05T12:01:57.727Z,10.40
2023-02-05T12:04:24.231Z,10.40
2023-02-05T12:06:50.698Z,10.40
2023-02-05T12:09:17.184Z,10.40
2023-02-05T12:11:43.654Z,10.40
2023-02-05T12:14:10.109Z,10.30
2023-02-05T12:16:36.642Z,10.30
2023-02-05T12:19:03.128Z,10.40
2023-02-05T12:21:29.603Z,10.40
2023-02-05T12:23:56.075Z,10.40
2023-02-05T12:26:22.583Z,10.40
2023-02-05T12:28:50.034Z,10.40
2023-02-05T12:31:16.564Z,10.40
2023-02-05T12:33:43.061Z,10.40
2023-02-05T12:36:09.556Z,10.40
2023-02-05T12:38:36.040Z,10.40
2023-02-05T12:41:02.534Z,10.40
2023-02-05T12:43:29.033Z,10.50
2023-02-05T12:45:55.570Z,10.60
2023-02-05T12:48:22.050Z,10.80
2023-02-05T12:50:48.553Z,10.90
2023-02-05T12:53:15.027Z,11.00
2023-02-05T12:55:41.520Z,11.00
2023-02-05T12:58:07.986Z,11.00
2023-02-05T13:00:34.762Z,11.20
2023-02-05T13:03:01.344Z,11.30
2023-02-05T13:05:27.840Z,11.40
2023-02-05T13:07:54.302Z,11.40
2023-02-05T13:10:20.758Z,11.50
2023-02-05T13:12:47.210Z,11.40
2023-02-05T13:15:13.685Z,11.40
2023-02-05T13:17:40.159Z,11.20
2023-02-05T13:20:06.637Z,11.20
2023-02-05T13:22:33.106Z,11.20
2023-02-05T13:24:59.587Z,11.20
2023-02-05T13:27:26.061Z,11.20
2023-02-05T13:29:52.544Z,11.10
2023-02-05T13:32:19.011Z,11.20
2023-02-05T13:34:45.471Z,11.10
2023-02-05T13:37:11.950Z,11.20
2023-02-05T13:39:38.423Z,11.30
2023-02-05T13:42:04.892Z,11.50
2023-02-05T13:44:31.349Z,11.60
2023-02-05T13:46:57.832Z,11.70
2023-02-05T13:49:24.313Z,11.70
2023-02-05T13:51:50.799Z,11.70
2023-02-05T13:54:17.264Z,11.80
2023-02-05T13:56:43.780Z,11.60
2023-02-05T13:59:10.236Z,11.40
2023-02-05T14:01:36.859Z,11.30
2023-02-05T14:04:03.389Z,11.30
2023-02-05T14:06:29.881Z,11.30
2023-02-05T14:08:56.333Z,11.10
2023-02-05T14:11:22.812Z,11.10
2023-02-05T14:13:49.298Z,11.20
2023-02-05T14:16:15.749Z,11.20
2023-02-05T14:18:42.217Z,11.40
2023-02-05T14:21:08.691Z,11.30
2023-02-05T14:23:35.179Z,11.40
2023-02-05T14:26:01.695Z,11.50
2023-02-05T14:28:28.171Z,11.60
2023-02-05T14:30:54.711Z,11.80
2023-02-05T14:33:21.187Z,11.80
2023-02-05T14:35:47.689Z,11.80
2023-02-05T14:38:14.167Z,11.90
2023-02-05T14:40:40.649Z,11.90
2023-02-05T14:43:10.529Z,11.90
2023-02-05T14:45:37.311Z,11.80
2023-02-05T14:48:03.772Z,11.80
2023-02-05T14:50:30.257Z,11.70
2023-02-05T14:52:56.741Z,11.60
2023-02-05T14:55:23.255Z,11.50
2023-02-05T14:57:49.739Z,11.40
2023-02-05T15:00:16.197Z,11.30
2023-02-05T15:02:42.698Z,11.30
2023-02-05T15:05:09.191Z,11.30
2023-02-05T15:07:35.665Z,11.30
2023-02-05T15:10:02.118Z,11.30
2023-02-05T15:12:28.576Z,11.50
2023-02-05T15:14:55.059Z,11.50
2023-02-05T15:17:21.538Z,11.70
2023-02-05T15:19:48.027Z,11.80
2023-02-05T15:22:14.518Z,11.90
2023-02-05T15:24:40.992Z,11.90
2023-02-05T15:27:07.517Z,12.00
2023-02-05T15:29:34.005Z,11.90
2023-02-05T15:32:00.507Z,12.00
2023-02-05T15:34:26.973Z,11.80
2023-02-05T15:36:53.443Z,11.70
2023-02-05T15:39:19.979Z,11.70
2023-02-05T15:41:46.495Z,11.60
2023-02-05T15:44:12.943Z,11.50
2023-02-05T15:46:39.440Z,11.40
2023-02-05T15:49:05.927Z,11.30
2023-02-05T15:51:32.399Z,11.30
2023-02-05T15:53:58.886Z,11.30
2023-02-05T15:56:25.361Z,11.40
2023-02-05T15:58:51.835Z,11.30
2023-02-05T16:01:18.289Z,11.20
2023-02-05T16:03:44.827Z,11.30
2023-02-05T16:06:11.310Z,11.30
2023-02-05T16:08:37.776Z,11.30
2023-02-05T16:11:04.238Z,11.30
2023-02-05T16:13:30.718Z,11.40
2023-02-05T16:15:57.224Z,11.40
2023-02-05T16:18:23.715Z,11.40
2023-02-05T16:20:50.195Z,11.60
2023-02-05T16:23:16.659Z,11.80
2023-02-05T16:25:43.165Z,11.90
2023-02-05T16:28:09.717Z,12.00
2023-02-05T16:30:36.568Z,12.00
2023-02-05T16:33:03.311Z,11.90
2023-02-05T16:35:29.924Z,11.80
2023-02-05T16:37:56.402Z,11.70
2023-02-05T16:40:22.850Z,11.70
2023-02-05T16:42:49.355Z,11.60
2023-02-05T16:45:15.820Z,11.50
2023-02-05T16:47:42.306Z,11.30
2023-02-05T16:50:08.758Z,11.40
2023-02-05T16:52:35.214Z,11.40
2023-02-05T16:55:01.699Z,11.40
2023-02-05T16:57:28.184Z,11.40
2023-02-05T16:59:54.680Z,11.30
2023-02-05T17:02:21.229Z,11.20
2023-02-05T17:04:47.737Z,11.30
2023-02-05T17:07:14.200Z,11.30
2023-02-05T17:09:40.691Z,11.20
2023-02-05T17:12:07.497Z,11.20
2023-02-05T17:14:34.038Z,11.20
2023-02-05T17:17:00.547Z,11.20
2023-02-05T17:19:27.011Z,11.20
2023-02-05T17:21:53.483Z,11.20
2023-02-05T17:24:19.940Z,11.20
2023-02-05T17:26:46.412Z,11.20
2023-02-05T17:29:12.895Z,11.20
2023-02-05T17:31:39.408Z,11.30
2023-02-05T17:34:05.887Z,11.20
2023-02-05T17:36:32.370Z,11.10
2023-02-05T17:38:58.851Z,11.20
2023-02-05T17:41:25.310Z,11.10
2023-02-05T17:43:51.783Z,11.10
2023-02-05T17:46:18.256Z,11.10
2023-02-05T17:48:44.808Z,11.10
2023-02-05T17:51:11.329Z,11.10
2023-02-05T17:53:37.792Z,11.10
2023-02-05T17:56:04.270Z,11.10
2023-02-05T17:58:30.748Z,11.10
2023-02-05T18:00:57.242Z,11.00
2023-02-05T18:03:23.748Z,11.10
2023-02-05T18:05:50.221Z,11.00
2023-02-05T18:08:16.702Z,11.10
2023-02-05T18:10:43.182Z,11.10
2023-02-05T18:13:09.691Z,11.10
2023-02-05T18:15:36.160Z,11.20
2023-02-05T18:18:02.645Z,11.20
2023-02-05T18:20:29.125Z,11.20
2023-02-05T18:22:55.579Z,11.20
2023-02-05T18:25:22.042Z,11.00
2023-02-05T18:27:48.519Z,11.10
2023-02-05T18:30:15.020Z,11.20
2023-02-05T18:32:41.501Z,11.10
2023-02-05T18:35:07.978Z,11.10
2023-02-05T18:37:34.441Z,11.00
2023-02-05T18:40:00.909Z,11.00
2023-02-05T18:42:27.388Z,11.10
2023-02-05T18:44:53.864Z,11.20
2023-02-05T18:47:20.338Z,11.20
2023-02-05T18:49:46.804Z,11.10
2023-02-05T18:52:13.283Z,11.10
2023-02-05T18:54:39.760Z,11.10
2023-02-05T18:57:06.232Z,11.10
2023-02-05T18:59:32.751Z,11.00
2023-02-05T19:01:59.243Z,11.10
2023-02-05T19:04:25.760Z,11.10
2023-02-05T19:06:52.327Z,10.90
2023-02-05T19:09:18.821Z,10.90
2023-02-05T19:11:45.298Z,11.10
2023-02-05T19:14:11.762Z,11.10
2023-02-05T19:16:38.270Z,11.00
2023-02-05T19:19:04.801Z,10.90
2023-02-05T19:21:31.304Z,11.10
2023-02-05T19:23:57.789Z,11.10
2023-02-05T19:26:24.277Z,11.10
2023-02-05T19:28:50.757Z,11.00
2023-02-05T19:31:17.341Z,11.00
2023-02-05T19:33:44.002Z,11.10
2023-02-05T19:36:10.503Z,11.00
2023-02-05T19:38:36.990Z,11.10
2023-02-05T19:41:03.460Z,11.10
2023-02-05T19:43:29.935Z,11.10
2023-02-05T19:45:56.400Z,11.10
2023-02-05T19:48:22.860Z,11.10
2023-02-05T19:50:49.338Z,11.10
2023-02-05T19:53:15.826Z,11.10
2023-02-05T19:55:42.311Z,11.10
2023-02-05T19:58:08.762Z,11.10
2023-02-05T20:00:35.528Z,11.10
2023-02-05T20:03:02.109Z,11.10
2023-02-05T20:05:28.586Z,11.10
2023-02-05T20:07:55.084Z,11.10
2023-02-05T20:10:21.555Z,11.10
2023-02-05T20:12:48.027Z,11.10
2023-02-05T20:15:14.605Z,11.10
2023-02-05T20:17:41.082Z,11.00
2023-02-05T20:20:14.243Z,11.00
2023-02-05T20:22:44.294Z,11.00
2023-02-05T20:25:10.781Z,11.00
2023-02-05T20:27:37.247Z,11.00
2023-02-05T20:30:03.770Z,11.00
2023-02-05T20:32:30.255Z,11.00
2023-02-05T20:34:56.701Z,11.10
2023-02-05T20:37:23.196Z,11.10
2023-02-05T20:39:49.675Z,11.10
2023-02-05T20:42:16.134Z,11.10
2023-02-05T20:44:42.630Z,11.10
2023-02-05T20:47:09.123Z,11.00
2023-02-05T20:49:35.628Z,11.00
2023-02-05T20:52:02.120Z,11.00
2023-02-05T20:54:28.584Z,11.10
2023-02-05T20:56:55.067Z,11.00
2023-02-05T20:59:21.556Z,11.00
2023-02-05T21:01:48.046Z,11.00
2023-02-05T21:04:14.514Z,11.00
2023-02-05T21:06:41.010Z,11.00
2023-02-05T21:09:07.478Z,11.00
2023-02-05T21:11:33.941Z,11.00
2023-02-05T21:14:00.415Z,11.00
2023-02-05T21:16:26.951Z,11.00
2023-02-05T21:18:53.440Z,11.00
2023-02-05T21:21:19.920Z,11.00
2023-02-05T21:23:46.404Z,11.00
2023-02-05T21:26:12.883Z,11.00
2023-02-05T21:28:39.353Z,11.00
2023-02-05T21:31:05.935Z,11.00
2023-02-05T21:33:32.486Z,11.00
2023-02-05T21:35:58.973Z,11.00
2023-02-05T21:38:25.455Z,11.00
2023-02-05T21:40:51.928Z,11.00
2023-02-05T21:43:18.409Z,11.00
2023-02-05T21:45:44.923Z,11.00
2023-02-05T21:48:11.430Z,10.90
2023-02-05T21:50:37.927Z,11.00
2023-02-05T21:53:04.393Z,11.00
2023-02-05T21:55:30.891Z,11.00
2023-02-05T21:57:57.365Z,11.00
2023-02-05T22:00:23.837Z,10.90
2023-02-05T22:02:50.334Z,11.00
2023-02-05T22:05:16.854Z,11.00
2023-02-05T22:07:43.306Z,10.90
2023-02-05T22:10:09.784Z,11.00
2023-02-05T22:12:36.265Z,11.00
2023-02-05T22:15:02.739Z,11.00
2023-02-05T22:17:29.216Z,11.00
2023-02-05T22:19:55.692Z,11.00
2023-02-05T22:22:22.181Z,11.00
2023-02-05T22:24:48.676Z,11.00
2023-02-05T22:27:15.428Z,11.00
2023-02-05T22:29:41.901Z,10.90
2023-02-05T22:32:08.413Z,11.00
2023-02-05T22:34:34.886Z,11.00
2023-02-05T22:37:01.350Z,11.00
2023-02-05T22:39:27.821Z,10.90
2023-02-05T22:41:54.307Z,10.90
2023-02-05T22:44:20.794Z,10.90
2023-02-05T22:46:47.262Z,10.90
2023-02-05T22:49:13.744Z,10.90
2023-02-05T22:51:40.243Z,10.90
2023-02-05T22:54:06.725Z,10.90
2023-02-05T22:56:33.227Z,10.90
2023-02-05T22:59:02.686Z,10.90
2023-02-05T23:01:29.734Z,10.80
2023-02-05T23:03:56.224Z,10.80
2023-02-05T23:06:22.734Z,10.80
2023-02-05T23:08:49.206Z,10.80
2023-02-05T23:11:15.679Z,10.90
2023-02-05T23:13:42.143Z,10.90
2023-02-05T23:16:08.632Z,10.80
2023-02-05T23:18:35.090Z,10.90
2023-02-05T23:21:01.633Z,10.80
2023-02-05T23:23:28.111Z,10.90
2023-02-05T23:25:54.585Z,10.90
2023-02-05T23:28:21.049Z,10.80
2023-02-05T23:30:47.620Z,10.80
2023-02-05T23:33:14.144Z,10.80
2023-02-05T23:35:40.617Z,10.70
2023-02-05T23:38:07.117Z,10.70
2023-02-05T23:40:33.618Z,10.70
2023-02-05T23:43:00.096Z,10.70
2023-02-05T23:45:26.576Z,10.70
2023-02-05T23:47:53.067Z,10.70
2023-02-05T23:50:19.538Z,10.70
2023-02-05T23:52:45.998Z,10.70
2023-02-05T23:55:12.481Z,10.70
2023-02-05T23:57:38.920Z,10.70
